Terminal Aerodrome Forecast
Issued by NWS

Home | Current Version | Previous Version | Text Only | Print | Product List | Glossary On
Versions: 1 2 3 4 5 6 7 8 9 10 11 12 13 14 15 16 17 18 19 20 21 22 23 24 25 26 27 28 29 30 31 32
000
FTUS45 KLKN 221300 AAA
TAFELY
TAF AMD
KELY 221300Z 2213/2312 31006KT P6SM VCSH BKN015 OVC050
      TEMPO 2217/2219 4SM -SN OVC012
     FM221900 27012G22KT P6SM VCSH BKN050
     FM230300 23012KT P6SM SCT050=

USA.gov is the U.S. government's official web portal to all federal, state and local government web resources and services.